createdAt,value
2019-01-16T00:00:47.297Z,-4.6
2019-01-16T00:01:37.119Z,-4.6
2019-01-16T00:02:27.967Z,-4.5
2019-01-16T00:03:17.845Z,-4.5
2019-01-16T00:04:08.080Z,-4.5
2019-01-16T00:04:57.579Z,-4.5
2019-01-16T00:05:47.367Z,-4.4
2019-01-16T00:06:38.256Z,-4.4
2019-01-16T00:07:28.028Z,-4.4
2019-01-16T00:08:18.069Z,-4.4
2019-01-16T00:09:08.143Z,-4.3
2019-01-16T00:09:58.198Z,-4.3
2019-01-16T00:10:48.252Z,-4.3
2019-01-16T00:11:38.586Z,-4.3
2019-01-16T00:12:28.624Z,-4.3
2019-01-16T00:13:18.688Z,-4.3
2019-01-16T00:14:08.470Z,-4.2
2019-01-16T00:14:58.245Z,-4.3
2019-01-16T00:15:48.388Z,-4.2
2019-01-16T00:16:38.438Z,-4.2
2019-01-16T00:17:28.268Z,-4.2
2019-01-16T00:18:19.238Z,-4.1
2019-01-16T00:19:09.093Z,-4.1
2019-01-16T00:19:59.154Z,-4.1
2019-01-16T00:20:49.202Z,-4.1
2019-01-16T00:21:38.982Z,-4.1
2019-01-16T00:22:29.315Z,-4.1
2019-01-16T00:23:19.097Z,-4
2019-01-16T00:24:09.422Z,-4
2019-01-16T00:24:58.650Z,-4
2019-01-16T00:25:49.553Z,-4
2019-01-16T00:26:39.322Z,-3.9
2019-01-16T00:27:29.380Z,-3.9
2019-01-16T00:28:19.699Z,-3.9
2019-01-16T00:29:09.755Z,-3.9
2019-01-16T00:29:59.270Z,-3.9
2019-01-16T00:30:49.325Z,-3.9
2019-01-16T00:31:39.933Z,-3.9
2019-01-16T00:32:29.992Z,-3.8
2019-01-16T00:33:20.041Z,-3.8
2019-01-16T00:34:09.833Z,-3.8
2019-01-16T00:35:00.225Z,-3.8
2019-01-16T00:40:50.560Z,-3.7
2019-01-16T00:41:40.349Z,-3.7
2019-01-16T00:42:30.386Z,-3.7
2019-01-16T00:43:20.164Z,-3.7
2019-01-16T00:44:10.779Z,-3.7
2019-01-16T00:45:00.005Z,-3.7
2019-01-16T00:45:50.888Z,-3.7
2019-01-16T00:46:40.933Z,-3.7
2019-01-16T00:47:31.014Z,-3.6
2019-01-16T00:48:26.756Z,-3.6
2019-01-16T00:49:10.869Z,-3.6
2019-01-16T00:50:00.942Z,-3.6
2019-01-16T00:50:50.671Z,-3.6
2019-01-16T00:51:41.286Z,-3.6
2019-01-16T00:52:30.786Z,-3.6
2019-01-16T00:53:21.403Z,-3.6
2019-01-16T00:54:11.442Z,-3.6
2019-01-16T00:55:01.238Z,-3.6
2019-01-16T00:55:51.564Z,-3.6
2019-01-16T00:56:41.613Z,-3.6
2019-01-16T00:57:31.675Z,-3.6
2019-01-16T00:58:21.469Z,-3.6
2019-01-16T00:59:12.354Z,-3.6
2019-01-16T01:00:01.630Z,-3.6
2019-01-16T01:00:51.638Z,-3.6
2019-01-16T01:01:41.698Z,-3.6
2019-01-16T01:02:31.740Z,-3.6
2019-01-16T01:03:22.083Z,-3.5
2019-01-16T01:04:11.585Z,-3.6
2019-01-16T01:05:01.937Z,-3.5
2019-01-16T01:05:52.242Z,-3.6
2019-01-16T01:06:42.038Z,-3.6
2019-01-16T01:07:31.805Z,-3.6
2019-01-16T01:08:22.447Z,-3.5
2019-01-16T01:09:12.475Z,-3.5
2019-01-16T01:10:02.560Z,-3.5
2019-01-16T01:10:52.035Z,-3.5
2019-01-16T01:11:42.375Z,-3.5
2019-01-16T01:12:32.690Z,-3.5
2019-01-16T01:13:22.750Z,-3.5
2019-01-16T01:14:12.812Z,-3.6
2019-01-16T01:15:02.889Z,-3.5
2019-01-16T01:15:52.915Z,-3.6
2019-01-16T01:16:42.717Z,-3.5
2019-01-16T01:17:33.039Z,-3.5
2019-01-16T01:18:23.094Z,-3.5
2019-01-16T01:19:12.869Z,-3.6
2019-01-16T01:20:03.223Z,-3.6
2019-01-16T01:20:52.986Z,-3.6
2019-01-16T01:21:43.044Z,-3.5
2019-01-16T01:22:33.444Z,-3.5
2019-01-16T01:23:22.874Z,-3.5
2019-01-16T01:24:13.489Z,-3.5
2019-01-16T01:25:03.561Z,-3.5
2019-01-16T01:25:53.346Z,-3.6
2019-01-16T01:26:43.659Z,-3.6
2019-01-16T01:27:33.714Z,-3.6
2019-01-16T01:28:23.491Z,-3.6
2019-01-16T01:29:13.816Z,-3.6
2019-01-16T01:30:03.350Z,-3.6
2019-01-16T01:30:53.773Z,-3.6
2019-01-16T01:31:43.451Z,-3.6
2019-01-16T01:32:33.496Z,-3.6
2019-01-16T01:33:24.114Z,-3.6
2019-01-16T01:34:14.190Z,-3.6
2019-01-16T01:35:04.246Z,-3.6
2019-01-16T01:35:54.273Z,-3.6
2019-01-16T01:36:44.330Z,-3.6
2019-01-16T01:37:34.113Z,-3.6
2019-01-16T01:38:24.464Z,-3.6
2019-01-16T01:39:14.218Z,-3.6
2019-01-16T01:40:04.571Z,-3.6
2019-01-16T01:40:54.330Z,-3.6
2019-01-16T01:41:44.105Z,-3.6
2019-01-16T01:42:34.444Z,-3.6
2019-01-16T01:43:24.241Z,-3.6
2019-01-16T01:44:14.297Z,-3.6
2019-01-16T01:45:04.340Z,-3.6
2019-01-16T01:45:54.965Z,-3.6
2019-01-16T01:46:44.726Z,-3.6
2019-01-16T01:47:34.802Z,-3.6
2019-01-16T01:48:24.846Z,-3.6
2019-01-16T01:49:14.967Z,-3.6
2019-01-16T01:50:05.241Z,-3.6
2019-01-16T01:50:54.792Z,-3.6
2019-01-16T01:51:44.837Z,-3.6
2019-01-16T01:52:35.404Z,-3.6
2019-01-16T01:53:25.459Z,-3.6
2019-01-16T01:54:15.512Z,-3.6
2019-01-16T01:55:05.292Z,-3.6
2019-01-16T01:55:55.629Z,-3.6
2019-01-16T01:56:45.137Z,-3.6
2019-01-16T01:57:35.196Z,-3.6
2019-01-16T01:58:25.252Z,-3.6
2019-01-16T01:59:15.302Z,-3.6
2019-01-16T02:00:05.637Z,-3.6
2019-01-16T02:00:55.977Z,-3.6
2019-01-16T02:01:45.469Z,-3.6
2019-01-16T02:02:35.853Z,-3.6
2019-01-16T02:03:26.137Z,-3.6
2019-01-16T02:04:15.636Z,-3.6
2019-01-16T02:05:05.981Z,-3.6
2019-01-16T02:05:56.028Z,-3.6
2019-01-16T02:06:46.411Z,-3.6
2019-01-16T02:07:36.413Z,-3.6
2019-01-16T02:08:26.474Z,-3.6
2019-01-16T02:09:16.516Z,-3.6
2019-01-16T02:10:06.301Z,-3.6
2019-01-16T02:10:56.646Z,-3.6
2019-01-16T02:11:46.424Z,-3.6
2019-01-16T02:12:36.483Z,-3.7
2019-01-16T02:13:26.531Z,-3.7
2019-01-16T02:14:16.311Z,-3.7
2019-01-16T02:15:06.649Z,-3.7
2019-01-16T02:15:56.981Z,-3.7
2019-01-16T02:16:46.490Z,-3.7
2019-01-16T02:17:36.323Z,-3.7
2019-01-16T02:27:37.773Z,-3.8
2019-01-16T02:28:27.285Z,-3.8
2019-01-16T02:29:17.617Z,-3.8
2019-01-16T02:30:07.978Z,-3.8
2019-01-16T02:30:58.045Z,-3.8
2019-01-16T02:31:47.782Z,-3.8
2019-01-16T02:32:37.873Z,-3.8
2019-01-16T02:33:27.640Z,-3.9
2019-01-16T02:34:17.956Z,-3.9
2019-01-16T02:35:07.729Z,-3.9
2019-01-16T02:35:58.065Z,-3.9
2019-01-16T02:36:48.454Z,-3.9
2019-01-16T02:37:38.229Z,-4
2019-01-16T02:38:28.265Z,-4
2019-01-16T02:39:18.594Z,-4.1
2019-01-16T02:40:08.345Z,-4.1
2019-01-16T02:40:58.422Z,-4.1
2019-01-16T02:41:48.457Z,-4.1
2019-01-16T02:42:38.526Z,-4.1
2019-01-16T02:43:28.853Z,-4.2
2019-01-16T02:44:18.690Z,-4.2
2019-01-16T02:45:08.955Z,-4.2
2019-01-16T02:45:59.030Z,-4.2
2019-01-16T02:46:48.324Z,-4.2
2019-01-16T02:47:38.706Z,-4.3
2019-01-16T02:48:28.166Z,-4.3
2019-01-16T02:49:18.973Z,-4.3
2019-01-16T02:50:09.296Z,-4.3
2019-01-16T02:50:59.366Z,-4.3
2019-01-16T02:51:49.421Z,-4.3
2019-01-16T02:52:39.533Z,-4.3
2019-01-16T02:53:28.977Z,-4.3
2019-01-16T02:54:19.604Z,-4.3
2019-01-16T02:55:09.148Z,-4.2
2019-01-16T02:55:59.644Z,-4.3
2019-01-16T02:56:49.521Z,-4.2
2019-01-16T02:57:39.800Z,-4.3
2019-01-16T02:58:29.653Z,-4.2
2019-01-16T02:59:19.928Z,-4.2
2019-01-16T03:00:09.973Z,-4.3
2019-01-16T03:01:00.038Z,-4.3
2019-01-16T03:01:50.114Z,-4.3
2019-01-16T03:02:40.152Z,-4.4
2019-01-16T03:03:29.642Z,-4.4
2019-01-16T03:04:19.986Z,-4.4
2019-01-16T03:05:10.106Z,-4.4
2019-01-16T03:08:43.532Z,-4.6
2019-01-16T03:09:33.526Z,-4.6
2019-01-16T03:10:23.905Z,-4.7
2019-01-16T03:11:13.895Z,-4.7
2019-01-16T03:12:03.962Z,-4.7
2019-01-16T03:12:54.027Z,-4.8
2019-01-16T03:13:44.074Z,-4.8
2019-01-16T03:14:34.137Z,-4.8
2019-01-16T03:15:23.912Z,-4.8
2019-01-16T03:16:13.709Z,-4.8
2019-01-16T03:17:04.034Z,-4.8
2019-01-16T03:17:53.827Z,-4.8
2019-01-16T03:18:44.408Z,-4.9
2019-01-16T03:19:34.571Z,-4.9
2019-01-16T03:20:24.274Z,-4.9
2019-01-16T03:21:14.574Z,-4.9
2019-01-16T03:22:04.671Z,-4.9
2019-01-16T03:22:54.704Z,-5
2019-01-16T03:23:44.194Z,-5
2019-01-16T03:24:34.258Z,-5
2019-01-16T03:25:24.310Z,-5
2019-01-16T03:26:14.962Z,-5
2019-01-16T03:27:04.699Z,-5
2019-01-16T03:27:55.029Z,-5
2019-01-16T03:28:45.089Z,-5.1
2019-01-16T03:29:34.853Z,-5.1
2019-01-16T03:30:25.380Z,-5.1
2019-01-16T03:31:15.298Z,-5.1
2019-01-16T03:32:05.475Z,-5.1
2019-01-16T03:32:55.147Z,-5.1
2019-01-16T03:33:45.134Z,-5.1
2019-01-16T03:34:35.483Z,-5.1
2019-01-16T03:35:25.539Z,-5.1
2019-01-16T03:36:15.421Z,-5.1
2019-01-16T03:37:05.369Z,-5.1
2019-01-16T03:37:55.703Z,-5.1
2019-01-16T03:38:45.765Z,-5.1
2019-01-16T03:39:35.591Z,-5.2
2019-01-16T03:40:25.864Z,-5.2
2019-01-16T03:41:15.642Z,-5.2
2019-01-16T03:42:06.031Z,-5.2
2019-01-16T03:42:55.746Z,-5.2
2019-01-16T03:43:45.825Z,-5.2
2019-01-16T03:44:35.923Z,-5.3
2019-01-16T03:45:26.197Z,-5.3
2019-01-16T03:46:16.251Z,-5.3
2019-01-16T03:47:05.769Z,-5.3
2019-01-16T03:47:56.388Z,-5.3
2019-01-16T03:48:46.415Z,-5.3
2019-01-16T03:49:36.492Z,-5.3
2019-01-16T03:50:26.547Z,-5.3
2019-01-16T03:51:16.032Z,-5.3
2019-01-16T03:52:06.654Z,-5.3
2019-01-16T03:52:56.457Z,-5.3
2019-01-16T03:53:46.475Z,-5.4
2019-01-16T03:54:36.809Z,-5.4
2019-01-16T03:55:26.605Z,-5.4
2019-01-16T03:56:16.643Z,-5.4
2019-01-16T03:57:06.712Z,-5.4
2019-01-16T03:57:57.059Z,-5.4
2019-01-16T03:58:47.107Z,-5.4
2019-01-16T03:59:36.894Z,-5.4
2019-01-16T04:00:27.204Z,-5.4
2019-01-16T04:01:17.276Z,-5.5
2019-01-16T04:02:07.332Z,-5.5
2019-01-16T04:02:57.399Z,-5.5
2019-01-16T04:03:47.146Z,-5.6
2019-01-16T04:04:37.494Z,-5.5
2019-01-16T04:05:27.545Z,-5.6
2019-01-16T04:06:17.604Z,-5.6
2019-01-16T04:07:07.386Z,-5.6
2019-01-16T04:07:57.424Z,-5.6
2019-01-16T04:08:47.499Z,-5.6
2019-01-16T04:09:37.563Z,-5.6
2019-01-16T04:10:27.586Z,-5.6
2019-01-16T04:11:17.656Z,-5.6
2019-01-16T04:12:08.007Z,-5.7
2019-01-16T04:12:57.777Z,-5.7
2019-01-16T04:13:47.836Z,-5.8
2019-01-16T04:14:38.180Z,-5.8
2019-01-16T04:15:28.209Z,-5.8
2019-01-16T04:16:18.328Z,-5.8
2019-01-16T04:17:08.401Z,-5.8
2019-01-16T04:17:58.386Z,-5.8
2019-01-16T04:18:48.454Z,-5.8
2019-01-16T04:19:38.506Z,-5.8
2019-01-16T04:20:28.552Z,-5.8
2019-01-16T04:21:18.633Z,-5.8
2019-01-16T04:22:08.713Z,-5.8
2019-01-16T04:22:58.453Z,-5.9
2019-01-16T04:23:48.798Z,-5.9
2019-01-16T04:24:38.575Z,-5.9
2019-01-16T04:25:28.655Z,-5.9
2019-01-16T04:26:18.960Z,-5.9
2019-01-16T04:27:08.995Z,-6
2019-01-16T04:27:59.066Z,-6
2019-01-16T04:28:48.845Z,-6
2019-01-16T04:29:39.177Z,-6
2019-01-16T04:30:28.942Z,-6
2019-01-16T04:31:19.277Z,-6.1
2019-01-16T04:32:09.352Z,-6.1
2019-01-16T04:32:59.442Z,-6.1
2019-01-16T04:33:49.457Z,-6.1
2019-01-16T04:34:39.513Z,-6.1
2019-01-16T04:35:29.283Z,-6.1
2019-01-16T04:36:19.633Z,-6.2
2019-01-16T04:37:09.666Z,-6.2
2019-01-16T04:37:59.519Z,-6.2
2019-01-16T04:38:49.792Z,-6.3
2019-01-16T04:39:39.844Z,-6.3
2019-01-16T04:40:29.913Z,-6.3
2019-01-16T04:41:19.687Z,-6.3
2019-01-16T04:42:10.001Z,-6.3
2019-01-16T04:42:59.846Z,-6.3
2019-01-16T04:43:49.849Z,-6.3
2019-01-16T04:44:40.232Z,-6.3
2019-01-16T04:45:29.972Z,-6.3
2019-01-16T04:46:20.279Z,-6.3
2019-01-16T04:47:10.345Z,-6.3
2019-01-16T04:48:00.412Z,-6.3
2019-01-16T04:48:50.529Z,-6.3
2019-01-16T04:49:40.514Z,-6.3
2019-01-16T04:50:30.290Z,-6.3
2019-01-16T04:51:20.675Z,-6.3
2019-01-16T04:52:10.402Z,-6.3
2019-01-16T04:53:00.718Z,-6.3
2019-01-16T04:53:50.801Z,-6.3
2019-01-16T04:54:40.857Z,-6.4
2019-01-16T04:55:30.898Z,-6.4
2019-01-16T04:56:20.689Z,-6.3
2019-01-16T04:57:11.025Z,-6.3
2019-01-16T04:58:01.066Z,-6.3
2019-01-16T04:58:51.161Z,-6.4
2019-01-16T04:59:40.908Z,-6.3
2019-01-16T05:00:31.053Z,-6.3
2019-01-16T05:01:21.302Z,-6.3
2019-01-16T05:02:11.381Z,-6.3
2019-01-16T05:03:01.419Z,-6.3
2019-01-16T05:03:51.470Z,-6.3
2019-01-16T05:04:41.528Z,-6.3
2019-01-16T05:05:31.300Z,-6.3
2019-01-16T05:06:21.634Z,-6.3
2019-01-16T05:07:11.465Z,-6.3
2019-01-16T05:08:01.200Z,-6.3
2019-01-16T05:08:51.792Z,-6.3
2019-01-16T05:09:41.845Z,-6.3
2019-01-16T05:10:31.642Z,-6.3
2019-01-16T05:11:21.415Z,-6.2
2019-01-16T05:12:12.029Z,-6.2
2019-01-16T05:13:02.071Z,-6.2
2019-01-16T05:13:52.139Z,-6.2
2019-01-16T05:14:41.902Z,-6.3
2019-01-16T05:15:31.970Z,-6.3
2019-01-16T05:16:22.288Z,-6.3
2019-01-16T05:17:12.359Z,-6.3
2019-01-16T05:18:02.417Z,-6.3
2019-01-16T05:18:52.505Z,-6.3
2019-01-16T05:19:42.530Z,-6.3
2019-01-16T05:20:32.322Z,-6.2
2019-01-16T05:21:22.104Z,-6.3
2019-01-16T05:22:12.412Z,-6.3
2019-01-16T05:23:02.747Z,-6.3
2019-01-16T05:23:52.819Z,-6.3
2019-01-16T05:24:42.866Z,-6.3
2019-01-16T05:25:32.636Z,-6.3
2019-01-16T05:26:22.986Z,-6.3
2019-01-16T05:27:13.034Z,-6.3
2019-01-16T05:28:03.092Z,-6.3
2019-01-16T05:28:53.159Z,-6.3
2019-01-16T05:29:43.026Z,-6.3
2019-01-16T05:30:33.241Z,-6.3
2019-01-16T05:31:23.032Z,-6.3
2019-01-16T05:32:13.362Z,-6.3
2019-01-16T05:33:03.414Z,-6.3
2019-01-16T05:33:53.473Z,-6.4
2019-01-16T05:34:43.521Z,-6.4
2019-01-16T05:35:33.592Z,-6.4
2019-01-16T05:36:23.104Z,-6.4
2019-01-16T05:37:13.411Z,-6.4
2019-01-16T05:38:03.767Z,-6.4
2019-01-16T05:38:53.805Z,-6.4
2019-01-16T05:39:43.583Z,-6.4
2019-01-16T05:40:33.942Z,-6.4
2019-01-16T05:41:23.707Z,-6.4
2019-01-16T05:42:14.028Z,-6.4
2019-01-16T05:43:03.828Z,-6.4
2019-01-16T05:43:54.150Z,-6.4
2019-01-16T05:44:44.194Z,-6.4
2019-01-16T05:45:33.974Z,-6.4
2019-01-16T05:46:24.298Z,-6.4
2019-01-16T05:47:14.358Z,-6.4
2019-01-16T05:48:04.413Z,-6.4
2019-01-16T05:48:54.455Z,-6.5
2019-01-16T05:49:49.331Z,-6.5
2019-01-16T05:50:34.035Z,-6.5
2019-01-16T05:51:24.635Z,-6.5
2019-01-16T05:52:14.682Z,-6.5
2019-01-16T05:53:04.487Z,-6.5
2019-01-16T05:53:54.805Z,-6.4
2019-01-16T05:54:44.849Z,-6.4
2019-01-16T05:55:34.660Z,-6.4
2019-01-16T05:56:24.972Z,-6.4
2019-01-16T05:57:15.013Z,-6.4
2019-01-16T05:58:05.145Z,-6.4
2019-01-16T05:58:54.860Z,-6.4
2019-01-16T05:59:44.924Z,-6.4
2019-01-16T06:00:35.264Z,-6.4
2019-01-16T06:01:25.323Z,-6.4
2019-01-16T06:02:15.361Z,-6.4
2019-01-16T06:03:05.471Z,-6.4
2019-01-16T06:03:55.486Z,-6.4
2019-01-16T06:04:44.970Z,-6.3
2019-01-16T06:06:43.320Z,-6.3
2019-01-16T06:07:33.657Z,-6.3
2019-01-16T06:08:23.713Z,-6.3
2019-01-16T06:09:13.769Z,-6.3
2019-01-16T06:10:03.855Z,-6.3
2019-01-16T06:10:53.900Z,-6.3
2019-01-16T06:11:43.911Z,-6.2
2019-01-16T06:12:33.985Z,-6.2
2019-01-16T06:13:24.087Z,-6.2
2019-01-16T06:14:14.143Z,-6.2
2019-01-16T06:15:04.158Z,-6.1
2019-01-16T06:15:54.249Z,-6.1
2019-01-16T06:16:43.974Z,-6.1
2019-01-16T06:17:34.304Z,-6.1
2019-01-16T06:18:24.357Z,-6
2019-01-16T06:19:14.423Z,-5.9
2019-01-16T06:20:04.489Z,-5.8
2019-01-16T06:20:54.259Z,-5.8
2019-01-16T06:21:44.581Z,-5.7
2019-01-16T06:22:34.641Z,-5.6
2019-01-16T06:23:24.779Z,-5.5
2019-01-16T06:24:14.749Z,-5.4
2019-01-16T06:25:04.848Z,-5.3
2019-01-16T06:25:54.872Z,-5.2
2019-01-16T06:26:44.919Z,-5.1
2019-01-16T06:27:35.052Z,-4.9
2019-01-16T06:28:25.094Z,-4.8
2019-01-16T06:29:14.819Z,-4.7
2019-01-16T06:30:05.151Z,-4.6
2019-01-16T06:30:54.909Z,-4.4
2019-01-16T06:31:45.259Z,-4.3
2019-01-16T06:32:35.316Z,-4.2
2019-01-16T06:33:25.394Z,-4.1
2019-01-16T06:34:15.441Z,-4
2019-01-16T06:35:05.498Z,-3.9
2019-01-16T06:35:55.279Z,-3.9
2019-01-16T06:37:35.651Z,-3.7
2019-01-16T06:38:25.698Z,-3.6
2019-01-16T06:39:15.752Z,-3.5
2019-01-16T06:40:05.538Z,-3.4
2019-01-16T06:40:55.581Z,-3.3
2019-01-16T06:41:45.376Z,-3.3
2019-01-16T06:42:35.971Z,-3.1
2019-01-16T06:43:26.030Z,-2.9
2019-01-16T06:44:16.112Z,-2.7
2019-01-16T06:45:05.593Z,-2.4
2019-01-16T06:45:55.928Z,-2
2019-01-16T06:46:46.250Z,-1.6
2019-01-16T06:47:36.030Z,-1.1
2019-01-16T06:48:25.805Z,-0.6
2019-01-16T06:49:16.148Z,-0.1
2019-01-16T06:50:06.474Z,0.3
2019-01-16T06:50:56.247Z,0.9
2019-01-16T06:51:46.585Z,1.3
2019-01-16T06:52:36.648Z,1.7
2019-01-16T06:53:26.430Z,2.1
2019-01-16T06:54:16.750Z,2.3
2019-01-16T06:55:06.610Z,2.6
2019-01-16T06:55:56.875Z,2.8
2019-01-16T06:56:46.912Z,2.9
2019-01-16T06:57:36.770Z,3.1
2019-01-16T06:58:26.760Z,3.2
2019-01-16T06:59:16.354Z,3.3
2019-01-16T07:00:07.142Z,3.3
2019-01-16T07:00:56.987Z,3.4
2019-01-16T07:01:47.255Z,3.4
2019-01-16T07:02:37.310Z,3.4
2019-01-16T07:03:27.380Z,3.4
2019-01-16T07:04:17.152Z,3.4
2019-01-16T07:06:43.239Z,3.4
2019-01-16T07:07:33.581Z,3.4
2019-01-16T07:08:23.159Z,3.4
2019-01-16T07:09:13.691Z,3.4
2019-01-16T07:10:03.755Z,3.4
2019-01-16T07:10:53.875Z,3.4
2019-01-16T07:11:43.641Z,3.4
2019-01-16T07:12:33.646Z,3.4
2019-01-16T07:13:23.966Z,3.4
2019-01-16T07:14:14.021Z,3.5
2019-01-16T07:15:04.068Z,3.6
2019-01-16T07:15:54.131Z,3.6
2019-01-16T07:16:43.911Z,3.6
2019-01-16T07:17:34.249Z,3.8
2019-01-16T07:18:24.296Z,4
2019-01-16T07:19:14.372Z,4.4
2019-01-16T07:20:12.128Z,5.1
2019-01-16T07:20:54.193Z,6.3
2019-01-16T07:21:44.520Z,7.4
2019-01-16T07:22:34.582Z,8.9
2019-01-16T07:23:24.643Z,10.4
2019-01-16T07:24:14.698Z,12
2019-01-16T07:25:04.751Z,13.6
2019-01-16T07:25:54.820Z,15
2019-01-16T07:26:44.867Z,16.3
2019-01-16T07:27:34.921Z,17.6
2019-01-16T07:28:24.975Z,18.8
2019-01-16T07:29:14.757Z,19.9
2019-01-16T07:30:05.095Z,20.9
2019-01-16T07:30:55.140Z,21.9
2019-01-16T07:31:45.244Z,22.9
2019-01-16T07:32:35.260Z,23.8
2019-01-16T07:33:25.323Z,24.7
2019-01-16T07:34:15.366Z,25.6
2019-01-16T07:35:05.415Z,26.4
2019-01-16T07:35:55.225Z,27.1
2019-01-16T07:36:44.975Z,27.9
2019-01-16T07:37:35.104Z,28.8
2019-01-16T07:38:25.647Z,29.6
2019-01-16T07:39:15.718Z,30.4
2019-01-16T07:40:05.767Z,30.9
2019-01-16T07:40:55.539Z,31.4
2019-01-16T07:41:45.612Z,32
2019-01-16T07:42:35.472Z,32.6
2019-01-16T07:43:26.009Z,33.1
2019-01-16T07:44:15.781Z,33.4
2019-01-16T07:45:05.828Z,33.9
2019-01-16T07:45:56.157Z,34.3
2019-01-16T07:46:46.217Z,34.7
2019-01-16T07:47:36.271Z,35.3
2019-01-16T07:48:26.466Z,35.9
2019-01-16T07:49:16.379Z,36.6
2019-01-16T07:50:06.439Z,37.3
2019-01-16T07:50:56.499Z,38
2019-01-16T07:51:46.557Z,38.6
2019-01-16T07:52:36.124Z,39.2
2019-01-16T07:53:26.676Z,39.9
2019-01-16T07:54:16.442Z,40.5
2019-01-16T07:55:06.781Z,41.1
2019-01-16T07:55:56.561Z,41.8
2019-01-16T07:56:46.629Z,42.4
2019-01-16T07:57:36.679Z,43
2019-01-16T07:58:27.006Z,43.6
2019-01-16T07:59:24.153Z,44.3
2019-01-16T08:00:07.123Z,45
2019-01-16T08:00:57.185Z,45.5
2019-01-16T08:01:47.231Z,46.1
2019-01-16T08:02:37.291Z,46.8
2019-01-16T08:03:27.335Z,47.4
2019-01-16T08:04:16.858Z,47.9
2019-01-16T08:05:07.456Z,48.3
2019-01-16T08:05:57.513Z,48.6
2019-01-16T08:06:47.580Z,49.1
2019-01-16T08:07:37.633Z,49.6
2019-01-16T08:08:27.400Z,50.1
2019-01-16T08:09:17.478Z,50.6
2019-01-16T08:10:07.512Z,51.2
2019-01-16T08:10:57.580Z,51.8
2019-01-16T08:11:47.363Z,52.3
2019-01-16T08:12:37.968Z,52.8
2019-01-16T08:13:28.030Z,53.2
2019-01-16T08:14:18.077Z,53.6
2019-01-16T08:15:08.132Z,53.9
2019-01-16T08:15:58.183Z,54
2019-01-16T08:16:47.706Z,54.2
2019-01-16T08:17:38.365Z,54.4
2019-01-16T08:18:28.365Z,54.6
2019-01-16T08:19:18.442Z,54.9
2019-01-16T08:20:08.231Z,55.3
2019-01-16T08:20:58.533Z,55.6
2019-01-16T08:21:48.587Z,55.9
2019-01-16T08:22:38.659Z,56.3
2019-01-16T08:23:28.704Z,56.8
2019-01-16T08:24:18.756Z,57.1
2019-01-16T08:25:08.862Z,57.6
2019-01-16T08:25:58.871Z,58.1
2019-01-16T08:27:38.711Z,59.1
2019-01-16T08:28:28.785Z,59.4
2019-01-16T08:29:19.096Z,59.8
2019-01-16T08:30:09.154Z,60.1
2019-01-16T08:30:58.929Z,60.4
2019-01-16T08:31:49.269Z,60.8
2019-01-16T08:32:39.046Z,61.2
2019-01-16T08:33:29.099Z,61.5
2019-01-16T08:34:19.429Z,61.9
2019-01-16T08:35:09.487Z,62.3
2019-01-16T08:35:59.278Z,62.6
2019-01-16T08:36:49.641Z,62.9
2019-01-16T08:37:39.371Z,63.3
2019-01-16T08:38:29.524Z,63.6
2019-01-16T08:39:19.769Z,64
2019-01-16T08:40:09.881Z,64.3
2019-01-16T08:40:59.881Z,64.7
2019-01-16T08:41:49.673Z,65.1
2019-01-16T08:42:39.986Z,65.5
2019-01-16T08:43:30.052Z,65.8
2019-01-16T08:44:20.106Z,66.1
2019-01-16T08:45:10.181Z,66.3
2019-01-16T08:45:59.946Z,66.6
2019-01-16T08:46:50.270Z,66.9
2019-01-16T08:47:40.353Z,67.5
2019-01-16T08:48:30.128Z,67.9
2019-01-16T08:49:20.229Z,68.3
2019-01-16T08:50:10.250Z,68.5
2019-01-16T08:51:00.561Z,68.7
2019-01-16T08:51:50.395Z,69
2019-01-16T08:52:40.659Z,69.4
2019-01-16T08:53:30.720Z,69.8
2019-01-16T08:54:20.523Z,70.2
2019-01-16T08:55:10.847Z,71
2019-01-16T08:56:00.892Z,72.4
2019-01-16T08:56:50.954Z,70.4
2019-01-16T08:57:41.020Z,67.6
2019-01-16T08:58:31.080Z,60.6
2019-01-16T08:59:20.845Z,52.9
2019-01-16T09:00:11.189Z,49.1
2019-01-16T09:01:00.679Z,47.4
2019-01-16T09:01:51.297Z,46.6
2019-01-16T09:02:41.365Z,46.3
2019-01-16T09:03:31.408Z,46.5
2019-01-16T09:04:21.457Z,47.3
2019-01-16T09:05:11.252Z,48.5
2019-01-16T09:06:00.812Z,49.8
2019-01-16T09:06:51.692Z,51.3
2019-01-16T09:07:41.684Z,52.8
2019-01-16T09:08:31.464Z,53.8
2019-01-16T09:09:21.534Z,54.4
2019-01-16T09:10:11.365Z,54.8
2019-01-16T09:11:01.916Z,54.8
2019-01-16T09:11:51.710Z,54.6
2019-01-16T09:12:41.269Z,54.3
2019-01-16T09:13:32.082Z,54.2
2019-01-16T09:14:21.917Z,54
2019-01-16T09:15:12.195Z,53.9
2019-01-16T09:16:01.979Z,53.8
2019-01-16T09:16:52.354Z,53.5
2019-01-16T09:17:43.889Z,53.1
2019-01-16T09:18:32.181Z,52.8
2019-01-16T09:19:22.531Z,52.5
2019-01-16T09:20:12.532Z,52.3
2019-01-16T09:21:02.586Z,51.8
2019-01-16T09:21:52.639Z,51.4
2019-01-16T09:22:42.695Z,50.9
2019-01-16T09:23:32.755Z,50.5
2019-01-16T09:24:22.539Z,49.9
2019-01-16T09:25:12.876Z,49.4
2019-01-16T09:26:02.926Z,49
2019-01-16T09:26:52.968Z,48.8
2019-01-16T09:27:43.028Z,48.5
2019-01-16T09:28:33.088Z,48.2
2019-01-16T09:29:23.151Z,47.8
2019-01-16T09:30:13.210Z,47.7
2019-01-16T09:31:02.980Z,47.8
2019-01-16T09:31:53.315Z,48.2
2019-01-16T09:32:43.400Z,48.8
2019-01-16T09:33:32.932Z,49.6
2019-01-16T09:34:23.530Z,50.7
2019-01-16T09:36:03.597Z,53
2019-01-16T09:36:53.658Z,54.3
2019-01-16T09:37:43.715Z,55.6
2019-01-16T09:38:33.764Z,56.9
2019-01-16T09:39:23.542Z,58
2019-01-16T09:40:13.882Z,59.2
2019-01-16T09:41:03.455Z,60.4
2019-01-16T09:41:53.985Z,61.6
2019-01-16T09:42:43.848Z,62.8
2019-01-16T09:43:34.125Z,63.7
2019-01-16T09:44:23.667Z,64.4
2019-01-16T09:45:14.229Z,65.1
2019-01-16T09:46:03.999Z,65.7
2019-01-16T09:46:54.327Z,66.2
2019-01-16T09:47:44.414Z,66.8
2019-01-16T09:48:33.889Z,67.3
2019-01-16T09:49:23.946Z,67.6
2019-01-16T09:50:14.274Z,67.9
2019-01-16T09:51:04.614Z,68.2
2019-01-16T09:51:54.744Z,68.6
2019-01-16T09:52:44.454Z,69.1
2019-01-16T09:53:34.782Z,69.7
2019-01-16T09:54:24.836Z,70.4
2019-01-16T09:55:14.899Z,72
2019-01-16T09:56:04.960Z,73.6
2019-01-16T09:56:54.730Z,69.8
2019-01-16T09:57:45.114Z,64.8
2019-01-16T09:58:35.123Z,58.4
2019-01-16T09:59:24.904Z,54.2
2019-01-16T10:01:05.279Z,50.6
2019-01-16T10:01:54.796Z,49.7
2019-01-16T10:02:45.402Z,49.2
2019-01-16T10:03:35.196Z,48.9
2019-01-16T10:04:25.296Z,48.7
2019-01-16T10:05:15.566Z,48.8
2019-01-16T10:07:42.808Z,48.9
2019-01-16T10:08:33.188Z,49.3
2019-01-16T10:09:23.193Z,50
2019-01-16T10:10:13.531Z,50.9
2019-01-16T10:11:03.583Z,51.8
2019-01-16T10:11:53.633Z,52.5
2019-01-16T10:12:43.691Z,53.1
2019-01-16T10:13:33.473Z,53.8
2019-01-16T10:14:23.812Z,54.6
2019-01-16T10:15:13.645Z,55.5
2019-01-16T10:16:03.913Z,56.6
2019-01-16T10:16:53.975Z,57.4
2019-01-16T10:17:44.040Z,57.9
2019-01-16T10:18:33.807Z,58.3
2019-01-16T10:19:23.860Z,58.4
2019-01-16T10:20:14.197Z,58.9
2019-01-16T10:21:04.252Z,59.6
2019-01-16T10:21:54.032Z,60.3
2019-01-16T10:22:44.362Z,60.8
2019-01-16T10:23:34.142Z,61.3
2019-01-16T10:24:24.212Z,61.6
2019-01-16T10:25:14.548Z,61.9
2019-01-16T10:26:04.604Z,62.3
2019-01-16T10:26:54.652Z,62.6
2019-01-16T10:27:43.942Z,62.9
2019-01-16T10:28:34.484Z,63.3
2019-01-16T10:29:24.809Z,63.4
2019-01-16T10:30:14.326Z,63.5
2019-01-16T10:31:04.921Z,63.7
2019-01-16T10:31:54.722Z,63.8
2019-01-16T10:32:45.046Z,63.9
2019-01-16T10:33:35.104Z,63.8
2019-01-16T10:34:25.151Z,63.7
2019-01-16T10:35:15.216Z,63.7
2019-01-16T10:36:04.516Z,63.7
2019-01-16T10:36:55.328Z,63.6
2019-01-16T10:37:45.393Z,63.6
2019-01-16T10:38:35.163Z,63.4
2019-01-16T10:39:25.231Z,63.2
2019-01-16T10:40:15.558Z,63.1
2019-01-16T10:41:05.621Z,62.9
2019-01-16T10:41:55.661Z,62.6
2019-01-16T10:42:45.451Z,62.3
2019-01-16T10:43:35.558Z,62
2019-01-16T10:44:25.605Z,61.6
2019-01-16T10:45:15.626Z,61.2
2019-01-16T10:46:05.968Z,61.1
2019-01-16T10:46:56.003Z,60.8
2019-01-16T10:47:46.084Z,60.5
2019-01-16T10:48:35.293Z,60.1
2019-01-16T10:49:26.173Z,59.9
2019-01-16T10:50:15.688Z,59.8
2019-01-16T10:51:06.017Z,59.6
2019-01-16T10:51:56.403Z,59.3
2019-01-16T10:52:46.128Z,59.1
2019-01-16T10:53:36.190Z,59.1
2019-01-16T10:54:26.580Z,59.2
2019-01-16T10:55:16.304Z,59.4
2019-01-16T10:56:06.347Z,59.5
2019-01-16T10:56:56.738Z,59.6
2019-01-16T10:57:46.742Z,59.7
2019-01-16T10:58:36.530Z,59.8
2019-01-16T10:59:26.577Z,60
2019-01-16T11:00:16.905Z,59.9
2019-01-16T11:01:06.692Z,59.8
2019-01-16T11:01:57.025Z,59.9
2019-01-16T11:02:46.799Z,60
2019-01-16T11:03:37.137Z,60.3
2019-01-16T11:04:26.642Z,60.9
2019-01-16T11:05:16.702Z,61.3
2019-01-16T11:06:07.032Z,61.8
2019-01-16T11:06:57.089Z,62.3
2019-01-16T11:07:47.422Z,63.1
2019-01-16T11:08:37.487Z,63.4
2019-01-16T11:09:27.557Z,63.6
2019-01-16T11:10:17.319Z,63.6
2019-01-16T11:11:16.507Z,63.6
2019-01-16T11:11:57.417Z,63.6
2019-01-16T11:12:47.762Z,63.6
2019-01-16T11:13:37.513Z,63.5
2019-01-16T11:14:27.598Z,63.4
2019-01-16T11:15:17.659Z,63.2
2019-01-16T11:16:07.988Z,63.1
2019-01-16T11:16:58.989Z,62.9
2019-01-16T11:17:47.816Z,63
2019-01-16T11:18:38.157Z,63.3
2019-01-16T11:19:27.947Z,63.9
2019-01-16T11:20:17.721Z,64.3
2019-01-16T11:21:13.486Z,64.9
2019-01-16T11:21:58.096Z,65.4
2019-01-16T11:22:48.446Z,65.8
2019-01-16T11:23:38.221Z,66.1
2019-01-16T11:24:28.286Z,66.3
2019-01-16T11:25:18.664Z,66.7
2019-01-16T11:26:08.119Z,67
2019-01-16T11:26:58.448Z,67.3
2019-01-16T11:27:48.217Z,67.5
2019-01-16T11:28:38.568Z,67.9
2019-01-16T11:29:28.955Z,68.1
2019-01-16T11:30:18.953Z,68.5
2019-01-16T11:31:08.749Z,68.8
2019-01-16T11:31:59.068Z,68.9
2019-01-16T11:32:49.126Z,68.9
2019-01-16T11:33:38.900Z,69
2019-01-16T11:34:28.670Z,70.4